sensor_id;sensor_type;location;lat;lon;timestamp;pressure;altitude;pressure_sealevel;temperature;humidity
74334;BME280;62753;40.394;-80.022;2023-03-23T00:02:06;97671.44;;;16.68;33.35
74334;BME280;62753;40.394;-80.022;2023-03-23T00:04:31;97661.37;;;16.78;33.17
74334;BME280;62753;40.394;-80.022;2023-03-23T00:06:56;97661.19;;;16.68;33.30
74334;BME280;62753;40.394;-80.022;2023-03-23T00:09:21;97661.22;;;16.55;33.37
74334;BME280;62753;40.394;-80.022;2023-03-23T00:11:46;97664.19;;;16.20;34.49
74334;BME280;62753;40.394;-80.022;2023-03-23T00:14:12;97668.42;;;16.89;33.11
74334;BME280;62753;40.394;-80.022;2023-03-23T00:16:37;97666.10;;;16.61;33.00
74334;BME280;62753;40.394;-80.022;2023-03-23T00:19:05;97660.66;;;17.41;32.12
74334;BME280;62753;40.394;-80.022;2023-03-23T00:21:31;97654.80;;;17.46;32.33
74334;BME280;62753;40.394;-80.022;2023-03-23T00:23:54;97652.56;;;17.69;31.64
74334;BME280;62753;40.394;-80.022;2023-03-23T00:26:19;97653.52;;;17.77;31.34
74334;BME280;62753;40.394;-80.022;2023-03-23T00:28:44;97648.34;;;17.66;31.52
74334;BME280;62753;40.394;-80.022;2023-03-23T00:31:10;97650.45;;;17.99;30.67
74334;BME280;62753;40.394;-80.022;2023-03-23T00:33:36;97651.27;;;18.47;30.16
74334;BME280;62753;40.394;-80.022;2023-03-23T00:36:01;97646.08;;;17.89;30.43
74334;BME280;62753;40.394;-80.022;2023-03-23T00:38:27;97653.90;;;18.19;30.54
74334;BME280;62753;40.394;-80.022;2023-03-23T00:40:52;97642.99;;;17.91;30.57
74334;BME280;62753;40.394;-80.022;2023-03-23T00:43:19;97639.06;;;18.34;30.50
74334;BME280;62753;40.394;-80.022;2023-03-23T00:45:43;97629.89;;;18.26;30.49
74334;BME280;62753;40.394;-80.022;2023-03-23T00:48:08;97633.10;;;18.12;30.41
74334;BME280;62753;40.394;-80.022;2023-03-23T00:50:33;97647.01;;;17.69;30.70
74334;BME280;62753;40.394;-80.022;2023-03-23T00:52:59;97647.98;;;17.09;32.15
74334;BME280;62753;40.394;-80.022;2023-03-23T00:55:24;97649.51;;;17.16;33.20
74334;BME280;62753;40.394;-80.022;2023-03-23T00:57:48;97654.79;;;17.24;32.90
74334;BME280;62753;40.394;-80.022;2023-03-23T01:00:15;97645.88;;;17.09;33.22
74334;BME280;62753;40.394;-80.022;2023-03-23T01:02:39;97638.50;;;17.03;33.79
74334;BME280;62753;40.394;-80.022;2023-03-23T01:05:05;97647.42;;;16.77;34.63
74334;BME280;62753;40.394;-80.022;2023-03-23T01:07:30;97654.88;;;16.51;35.14
74334;BME280;62753;40.394;-80.022;2023-03-23T01:09:55;97660.76;;;16.33;36.51
74334;BME280;62753;40.394;-80.022;2023-03-23T01:12:22;97658.70;;;15.05;39.58
74334;BME280;62753;40.394;-80.022;2023-03-23T01:14:46;97650.28;;;15.34;40.29
74334;BME280;62753;40.394;-80.022;2023-03-23T01:17:12;97642.75;;;15.19;39.85
74334;BME280;62753;40.394;-80.022;2023-03-23T01:19:38;97644.01;;;15.50;39.82
74334;BME280;62753;40.394;-80.022;2023-03-23T01:22:02;97648.61;;;16.39;38.52
74334;BME280;62753;40.394;-80.022;2023-03-23T01:24:28;97649.71;;;15.60;39.54
74334;BME280;62753;40.394;-80.022;2023-03-23T01:26:53;97658.42;;;15.97;38.54
74334;BME280;62753;40.394;-80.022;2023-03-23T01:29:18;97669.22;;;16.14;38.82
74334;BME280;62753;40.394;-80.022;2023-03-23T01:31:44;97667.66;;;16.28;38.99
74334;BME280;62753;40.394;-80.022;2023-03-23T01:34:09;97673.65;;;15.60;39.73
74334;BME280;62753;40.394;-80.022;2023-03-23T01:36:34;97675.57;;;15.82;40.01
74334;BME280;62753;40.394;-80.022;2023-03-23T01:39:00;97678.36;;;15.35;40.79
74334;BME280;62753;40.394;-80.022;2023-03-23T01:41:25;97677.90;;;14.75;41.16
74334;BME280;62753;40.394;-80.022;2023-03-23T01:43:59;97680.97;;;15.39;41.09
74334;BME280;62753;40.394;-80.022;2023-03-23T01:46:16;97683.70;;;15.26;41.92
74334;BME280;62753;40.394;-80.022;2023-03-23T01:48:41;97685.37;;;15.69;41.43
74334;BME280;62753;40.394;-80.022;2023-03-23T01:51:09;97683.48;;;15.42;41.34
74334;BME280;62753;40.394;-80.022;2023-03-23T01:53:36;97705.84;;;15.34;41.69
74334;BME280;62753;40.394;-80.022;2023-03-23T01:55:58;97708.18;;;15.50;41.69
74334;BME280;62753;40.394;-80.022;2023-03-23T01:58:25;97718.02;;;14.80;42.93
74334;BME280;62753;40.394;-80.022;2023-03-23T02:00:47;97714.56;;;13.86;45.24
74334;BME280;62753;40.394;-80.022;2023-03-23T02:03:14;97702.94;;;13.51;46.30
74334;BME280;62753;40.394;-80.022;2023-03-23T02:05:40;97691.44;;;13.97;45.59
74334;BME280;62753;40.394;-80.022;2023-03-23T02:08:05;97685.05;;;14.30;45.58
74334;BME280;62753;40.394;-80.022;2023-03-23T02:10:30;97673.55;;;14.33;45.43
74334;BME280;62753;40.394;-80.022;2023-03-23T02:12:55;97669.71;;;14.51;44.78
74334;BME280;62753;40.394;-80.022;2023-03-23T02:15:21;97676.70;;;14.67;44.60
74334;BME280;62753;40.394;-80.022;2023-03-23T02:17:51;97689.58;;;14.75;44.01
74334;BME280;62753;40.394;-80.022;2023-03-23T02:20:20;97695.61;;;14.99;44.13
74334;BME280;62753;40.394;-80.022;2023-03-23T02:22:49;97701.52;;;14.76;44.40
74334;BME280;62753;40.394;-80.022;2023-03-23T02:25:23;97704.03;;;14.68;44.37
74334;BME280;62753;40.394;-80.022;2023-03-23T02:27:42;97686.40;;;15.22;43.43
74334;BME280;62753;40.394;-80.022;2023-03-23T02:30:03;97676.22;;;14.80;44.42
74334;BME280;62753;40.394;-80.022;2023-03-23T02:34:47;97650.89;;;13.00;49.86
74334;BME280;62753;40.394;-80.022;2023-03-23T02:37:13;97652.77;;;11.73;53.23
74334;BME280;62753;40.394;-80.022;2023-03-23T02:39:39;97651.65;;;11.62;54.38
74334;BME280;62753;40.394;-80.022;2023-03-23T02:42:04;97641.32;;;11.26;55.90
74334;BME280;62753;40.394;-80.022;2023-03-23T02:44:28;97635.83;;;11.54;54.35
74334;BME280;62753;40.394;-80.022;2023-03-23T02:46:52;97626.79;;;10.76;57.14
74334;BME280;62753;40.394;-80.022;2023-03-23T02:49:18;97614.29;;;11.39;56.30
74334;BME280;62753;40.394;-80.022;2023-03-23T02:51:45;97612.50;;;10.20;59.05
74334;BME280;62753;40.394;-80.022;2023-03-23T02:54:08;97601.49;;;11.09;56.56
74334;BME280;62753;40.394;-80.022;2023-03-23T02:56:33;97589.12;;;10.49;58.85
74334;BME280;62753;40.394;-80.022;2023-03-23T02:58:58;97579.31;;;11.01;58.02
74334;BME280;62753;40.394;-80.022;2023-03-23T03:03:49;97569.92;;;10.85;58.19
74334;BME280;62753;40.394;-80.022;2023-03-23T03:06:22;97547.68;;;10.51;58.63
74334;BME280;62753;40.394;-80.022;2023-03-23T03:08:46;97545.77;;;10.82;57.62
74334;BME280;62753;40.394;-80.022;2023-03-23T03:11:08;97558.78;;;10.63;58.65
74334;BME280;62753;40.394;-80.022;2023-03-23T03:13:38;97561.01;;;11.15;58.32
74334;BME280;62753;40.394;-80.022;2023-03-23T03:16:00;97558.09;;;11.05;58.67
74334;BME280;62753;40.394;-80.022;2023-03-23T03:18:26;97550.03;;;10.30;61.18
74334;BME280;62753;40.394;-80.022;2023-03-23T03:20:49;97555.09;;;10.75;59.60
74334;BME280;62753;40.394;-80.022;2023-03-23T03:23:15;97562.12;;;11.04;58.64
74334;BME280;62753;40.394;-80.022;2023-03-23T03:25:40;97547.05;;;10.12;60.84
74334;BME280;62753;40.394;-80.022;2023-03-23T03:28:04;97539.01;;;10.02;61.43
74334;BME280;62753;40.394;-80.022;2023-03-23T03:30:34;97550.36;;;10.00;61.57
74334;BME280;62753;40.394;-80.022;2023-03-23T03:32:56;97572.80;;;10.60;59.68
74334;BME280;62753;40.394;-80.022;2023-03-23T03:35:23;97574.01;;;10.02;59.65
74334;BME280;62753;40.394;-80.022;2023-03-23T03:37:47;97578.35;;;9.32;63.22
74334;BME280;62753;40.394;-80.022;2023-03-23T03:40:15;97573.37;;;9.47;64.16
74334;BME280;62753;40.394;-80.022;2023-03-23T03:42:39;97570.89;;;9.48;64.13
74334;BME280;62753;40.394;-80.022;2023-03-23T03:45:06;97559.73;;;9.40;65.51
74334;BME280;62753;40.394;-80.022;2023-03-23T03:47:30;97530.43;;;9.50;65.56
74334;BME280;62753;40.394;-80.022;2023-03-23T03:49:56;97495.03;;;9.88;64.63
74334;BME280;62753;40.394;-80.022;2023-03-23T03:52:22;97481.30;;;9.38;66.02
74334;BME280;62753;40.394;-80.022;2023-03-23T03:54:48;97496.36;;;9.28;65.91
74334;BME280;62753;40.394;-80.022;2023-03-23T03:57:13;97481.19;;;9.54;64.83
74334;BME280;62753;40.394;-80.022;2023-03-23T03:59:39;97477.08;;;9.50;64.92
74334;BME280;62753;40.394;-80.022;2023-03-23T04:02:04;97474.55;;;9.84;63.46
74334;BME280;62753;40.394;-80.022;2023-03-23T04:04:30;97473.31;;;9.51;64.43
74334;BME280;62753;40.394;-80.022;2023-03-23T04:06:55;97458.85;;;9.47;64.54
74334;BME280;62753;40.394;-80.022;2023-03-23T04:09:21;97468.93;;;10.58;60.60
74334;BME280;62753;40.394;-80.022;2023-03-23T04:11:46;97461.11;;;10.25;60.11
74334;BME280;62753;40.394;-80.022;2023-03-23T04:14:11;97464.97;;;9.66;62.19
74334;BME280;62753;40.394;-80.022;2023-03-23T04:16:37;97476.09;;;9.75;63.54
74334;BME280;62753;40.394;-80.022;2023-03-23T04:19:03;97470.63;;;9.44;63.93
74334;BME280;62753;40.394;-80.022;2023-03-23T04:21:28;97479.51;;;9.46;64.30
74334;BME280;62753;40.394;-80.022;2023-03-23T04:23:53;97473.72;;;9.80;63.60
74334;BME280;62753;40.394;-80.022;2023-03-23T04:26:19;97459.92;;;10.52;61.90
74334;BME280;62753;40.394;-80.022;2023-03-23T04:28:44;97452.58;;;9.71;62.90
74334;BME280;62753;40.394;-80.022;2023-03-23T04:31:09;97448.71;;;10.39;62.29
74334;BME280;62753;40.394;-80.022;2023-03-23T04:33:35;97466.76;;;9.59;64.91
74334;BME280;62753;40.394;-80.022;2023-03-23T04:36:01;97477.81;;;10.62;62.00
74334;BME280;62753;40.394;-80.022;2023-03-23T04:38:26;97479.20;;;11.81;56.82
74334;BME280;62753;40.394;-80.022;2023-03-23T04:40:52;97487.73;;;12.72;53.13
74334;BME280;62753;40.394;-80.022;2023-03-23T04:43:16;97464.28;;;12.08;54.30
74334;BME280;62753;40.394;-80.022;2023-03-23T04:45:42;97443.81;;;11.62;55.84
74334;BME280;62753;40.394;-80.022;2023-03-23T04:48:08;97471.32;;;12.53;53.51
74334;BME280;62753;40.394;-80.022;2023-03-23T04:50:34;97507.44;;;13.82;50.41
74334;BME280;62753;40.394;-80.022;2023-03-23T04:52:59;97537.47;;;14.62;47.89
74334;BME280;62753;40.394;-80.022;2023-03-23T04:55:25;97550.30;;;14.89;46.94
74334;BME280;62753;40.394;-80.022;2023-03-23T04:57:48;97588.73;;;14.86;47.15
74334;BME280;62753;40.394;-80.022;2023-03-23T05:00:14;97595.65;;;14.05;48.06
74334;BME280;62753;40.394;-80.022;2023-03-23T05:02:39;97515.86;;;12.42;53.78
74334;BME280;62753;40.394;-80.022;2023-03-23T05:05:05;97448.57;;;10.21;60.82
74334;BME280;62753;40.394;-80.022;2023-03-23T05:07:30;97417.56;;;10.25;63.00
74334;BME280;62753;40.394;-80.022;2023-03-23T05:09:55;97428.00;;;10.37;62.01
74334;BME280;62753;40.394;-80.022;2023-03-23T05:12:21;97421.68;;;10.69;60.74
74334;BME280;62753;40.394;-80.022;2023-03-23T05:14:46;97421.94;;;9.83;62.90
74334;BME280;62753;40.394;-80.022;2023-03-23T05:17:12;97421.24;;;9.92;63.39
74334;BME280;62753;40.394;-80.022;2023-03-23T05:19:38;97413.51;;;9.81;63.95
74334;BME280;62753;40.394;-80.022;2023-03-23T05:22:03;97398.31;;;9.93;63.90
74334;BME280;62753;40.394;-80.022;2023-03-23T05:24:29;97402.25;;;9.61;64.24
74334;BME280;62753;40.394;-80.022;2023-03-23T05:26:54;97396.86;;;9.90;63.73
74334;BME280;62753;40.394;-80.022;2023-03-23T05:29:19;97386.88;;;10.50;62.43
74334;BME280;62753;40.394;-80.022;2023-03-23T05:31:45;97384.55;;;10.70;61.49
74334;BME280;62753;40.394;-80.022;2023-03-23T05:34:11;97386.80;;;10.63;61.33
74334;BME280;62753;40.394;-80.022;2023-03-23T05:36:36;97382.31;;;9.94;62.32
74334;BME280;62753;40.394;-80.022;2023-03-23T05:39:02;97382.39;;;9.86;64.20
74334;BME280;62753;40.394;-80.022;2023-03-23T05:41:27;97380.83;;;9.83;64.46
74334;BME280;62753;40.394;-80.022;2023-03-23T05:43:52;97381.45;;;10.86;61.51
74334;BME280;62753;40.394;-80.022;2023-03-23T05:46:17;97381.42;;;11.05;60.02
74334;BME280;62753;40.394;-80.022;2023-03-23T05:48:43;97362.93;;;10.34;61.49
74334;BME280;62753;40.394;-80.022;2023-03-23T05:51:09;97360.85;;;10.67;61.39
74334;BME280;62753;40.394;-80.022;2023-03-23T05:53:34;97351.90;;;10.32;61.86
74334;BME280;62753;40.394;-80.022;2023-03-23T05:56:00;97353.15;;;10.31;61.82
74334;BME280;62753;40.394;-80.022;2023-03-23T05:58:25;97349.35;;;10.66;62.18
74334;BME280;62753;40.394;-80.022;2023-03-23T06:00:50;97337.94;;;11.69;59.56
74334;BME280;62753;40.394;-80.022;2023-03-23T06:03:15;97338.09;;;10.22;62.33
74334;BME280;62753;40.394;-80.022;2023-03-23T06:05:43;97325.85;;;10.77;61.56
74334;BME280;62753;40.394;-80.022;2023-03-23T06:08:07;97338.08;;;10.54;63.34
74334;BME280;62753;40.394;-80.022;2023-03-23T06:10:33;97330.63;;;9.99;65.76
74334;BME280;62753;40.394;-80.022;2023-03-23T06:12:58;97318.93;;;10.35;64.81
74334;BME280;62753;40.394;-80.022;2023-03-23T06:15:23;97317.69;;;10.53;63.53
74334;BME280;62753;40.394;-80.022;2023-03-23T06:17:49;97312.88;;;10.77;62.91
74334;BME280;62753;40.394;-80.022;2023-03-23T06:20:14;97320.08;;;10.19;63.38
74334;BME280;62753;40.394;-80.022;2023-03-23T06:22:40;97326.86;;;11.19;61.70
74334;BME280;62753;40.394;-80.022;2023-03-23T06:25:05;97318.82;;;11.70;59.87
74334;BME280;62753;40.394;-80.022;2023-03-23T06:27:30;97308.43;;;11.33;61.23
74334;BME280;62753;40.394;-80.022;2023-03-23T06:29:56;97295.63;;;11.49;61.11
74334;BME280;62753;40.394;-80.022;2023-03-23T06:32:22;97282.75;;;11.41;61.23
74334;BME280;62753;40.394;-80.022;2023-03-23T06:34:46;97268.02;;;10.32;63.84
74334;BME280;62753;40.394;-80.022;2023-03-23T06:37:11;97264.08;;;11.29;61.17
74334;BME280;62753;40.394;-80.022;2023-03-23T06:39:37;97271.62;;;11.03;61.28
74334;BME280;62753;40.394;-80.022;2023-03-23T06:42:02;97271.62;;;12.02;59.59
74334;BME280;62753;40.394;-80.022;2023-03-23T06:44:28;97267.41;;;12.12;59.10
74334;BME280;62753;40.394;-80.022;2023-03-23T06:46:53;97251.57;;;10.97;61.17
74334;BME280;62753;40.394;-80.022;2023-03-23T06:49:18;97257.35;;;12.45;57.65
74334;BME280;62753;40.394;-80.022;2023-03-23T06:51:44;97255.27;;;13.65;54.55
74334;BME280;62753;40.394;-80.022;2023-03-23T06:54:10;97247.31;;;12.14;58.02
74334;BME280;62753;40.394;-80.022;2023-03-23T06:56:35;97241.37;;;12.48;57.85
74334;BME280;62753;40.394;-80.022;2023-03-23T06:59:00;97237.16;;;13.16;56.45
74334;BME280;62753;40.394;-80.022;2023-03-23T07:01:25;97239.36;;;13.35;55.17
74334;BME280;62753;40.394;-80.022;2023-03-23T07:03:51;97216.13;;;13.28;55.27
74334;BME280;62753;40.394;-80.022;2023-03-23T07:06:16;97229.32;;;13.70;53.50
74334;BME280;62753;40.394;-80.022;2023-03-23T07:08:42;97230.84;;;13.25;53.93
74334;BME280;62753;40.394;-80.022;2023-03-23T07:11:07;97241.12;;;13.31;53.96
74334;BME280;62753;40.394;-80.022;2023-03-23T07:13:32;97228.00;;;13.57;54.27
74334;BME280;62753;40.394;-80.022;2023-03-23T07:15:58;97216.04;;;13.03;55.21
74334;BME280;62753;40.394;-80.022;2023-03-23T07:18:23;97212.03;;;12.13;57.12
74334;BME280;62753;40.394;-80.022;2023-03-23T07:20:48;97223.47;;;13.21;55.79
74334;BME280;62753;40.394;-80.022;2023-03-23T07:23:13;97219.59;;;13.95;53.42
74334;BME280;62753;40.394;-80.022;2023-03-23T07:25:39;97239.60;;;14.23;52.80
74334;BME280;62753;40.394;-80.022;2023-03-23T07:28:04;97233.24;;;13.95;53.21
74334;BME280;62753;40.394;-80.022;2023-03-23T07:30:30;97229.87;;;13.88;53.41
74334;BME280;62753;40.394;-80.022;2023-03-23T07:32:55;97223.92;;;14.21;53.04
74334;BME280;62753;40.394;-80.022;2023-03-23T07:35:20;97215.17;;;14.18;52.30
74334;BME280;62753;40.394;-80.022;2023-03-23T07:37:45;97206.53;;;14.33;51.77
74334;BME280;62753;40.394;-80.022;2023-03-23T07:40:11;97214.49;;;14.22;52.75
74334;BME280;62753;40.394;-80.022;2023-03-23T07:42:36;97221.16;;;13.71;54.64
74334;BME280;62753;40.394;-80.022;2023-03-23T07:45:01;97224.55;;;14.26;52.99
74334;BME280;62753;40.394;-80.022;2023-03-23T07:47:27;97230.58;;;14.23;52.38
74334;BME280;62753;40.394;-80.022;2023-03-23T07:49:52;97206.26;;;14.43;51.59
74334;BME280;62753;40.394;-80.022;2023-03-23T07:52:18;97205.50;;;14.23;51.53
74334;BME280;62753;40.394;-80.022;2023-03-23T07:54:43;97191.31;;;14.46;51.76
74334;BME280;62753;40.394;-80.022;2023-03-23T07:57:08;97202.37;;;14.80;51.51
74334;BME280;62753;40.394;-80.022;2023-03-23T07:59:34;97208.40;;;14.27;53.52
74334;BME280;62753;40.394;-80.022;2023-03-23T08:01:59;97205.47;;;14.08;53.24
74334;BME280;62753;40.394;-80.022;2023-03-23T08:04:24;97190.30;;;13.81;54.38
74334;BME280;62753;40.394;-80.022;2023-03-23T08:06:49;97184.69;;;14.38;52.87
74334;BME280;62753;40.394;-80.022;2023-03-23T08:09:15;97175.69;;;14.74;52.64
74334;BME280;62753;40.394;-80.022;2023-03-23T08:11:40;97172.27;;;14.59;52.05
74334;BME280;62753;40.394;-80.022;2023-03-23T08:14:06;97171.22;;;14.80;51.69
74334;BME280;62753;40.394;-80.022;2023-03-23T08:16:32;97168.19;;;14.39;52.98
74334;BME280;62753;40.394;-80.022;2023-03-23T08:18:58;97170.90;;;13.32;55.43
74334;BME280;62753;40.394;-80.022;2023-03-23T08:21:23;97166.94;;;14.53;53.57
74334;BME280;62753;40.394;-80.022;2023-03-23T08:23:48;97156.33;;;14.67;53.46
74334;BME280;62753;40.394;-80.022;2023-03-23T08:26:14;97153.79;;;14.25;53.62
74334;BME280;62753;40.394;-80.022;2023-03-23T08:28:39;97155.16;;;14.87;52.41
74334;BME280;62753;40.394;-80.022;2023-03-23T08:31:07;97152.54;;;14.61;52.89
74334;BME280;62753;40.394;-80.022;2023-03-23T08:33:30;97154.10;;;14.43;52.79
74334;BME280;62753;40.394;-80.022;2023-03-23T08:35:57;97161.64;;;14.63;54.06
74334;BME280;62753;40.394;-80.022;2023-03-23T08:38:21;97152.94;;;14.36;54.38
74334;BME280;62753;40.394;-80.022;2023-03-23T08:40:46;97162.79;;;14.40;54.83
74334;BME280;62753;40.394;-80.022;2023-03-23T08:43:11;97158.35;;;13.62;55.98
74334;BME280;62753;40.394;-80.022;2023-03-23T08:45:37;97154.81;;;14.33;54.57
74334;BME280;62753;40.394;-80.022;2023-03-23T08:48:02;97153.89;;;13.68;56.15
74334;BME280;62753;40.394;-80.022;2023-03-23T08:50:28;97148.79;;;14.15;55.26
74334;BME280;62753;40.394;-80.022;2023-03-23T08:52:54;97136.59;;;14.13;54.76
74334;BME280;62753;40.394;-80.022;2023-03-23T08:55:19;97143.30;;;14.54;53.54
74334;BME280;62753;40.394;-80.022;2023-03-23T08:57:44;97134.72;;;14.64;53.68
74334;BME280;62753;40.394;-80.022;2023-03-23T09:00:13;97128.19;;;14.74;52.35
74334;BME280;62753;40.394;-80.022;2023-03-23T09:02:34;97116.92;;;14.68;52.88
74334;BME280;62753;40.394;-80.022;2023-03-23T09:05:00;97117.37;;;14.47;54.07
74334;BME280;62753;40.394;-80.022;2023-03-23T09:07:25;97112.31;;;14.85;53.24
74334;BME280;62753;40.394;-80.022;2023-03-23T09:09:50;97113.89;;;14.93;52.16
74334;BME280;62753;40.394;-80.022;2023-03-23T09:12:15;97105.76;;;15.54;51.20
74334;BME280;62753;40.394;-80.022;2023-03-23T09:14:41;97079.25;;;15.00;52.19
74334;BME280;62753;40.394;-80.022;2023-03-23T09:17:07;97065.25;;;13.43;56.73
74334;BME280;62753;40.394;-80.022;2023-03-23T09:19:33;97069.69;;;13.00;57.85
74334;BME280;62753;40.394;-80.022;2023-03-23T09:21:57;97084.01;;;13.52;57.52
74334;BME280;62753;40.394;-80.022;2023-03-23T09:24:23;97084.99;;;14.33;55.21
74334;BME280;62753;40.394;-80.022;2023-03-23T09:26:49;97099.97;;;14.32;54.16
74334;BME280;62753;40.394;-80.022;2023-03-23T09:29:14;97094.10;;;14.50;53.86
74334;BME280;62753;40.394;-80.022;2023-03-23T09:31:40;97106.17;;;15.07;52.82
74334;BME280;62753;40.394;-80.022;2023-03-23T09:34:04;97095.60;;;15.15;52.55
74334;BME280;62753;40.394;-80.022;2023-03-23T09:36:29;97097.06;;;14.79;53.46
74334;BME280;62753;40.394;-80.022;2023-03-23T09:38:54;97096.04;;;15.34;51.85
74334;BME280;62753;40.394;-80.022;2023-03-23T09:41:36;97078.77;;;15.85;50.44
74334;BME280;62753;40.394;-80.022;2023-03-23T09:43:55;97091.09;;;15.56;50.79
74334;BME280;62753;40.394;-80.022;2023-03-23T09:46:26;97087.73;;;15.71;50.52
74334;BME280;62753;40.394;-80.022;2023-03-23T09:48:45;97078.01;;;15.86;49.64
74334;BME280;62753;40.394;-80.022;2023-03-23T09:51:07;97080.61;;;15.39;50.72
74334;BME280;62753;40.394;-80.022;2023-03-23T09:53:32;97083.76;;;15.59;51.16
74334;BME280;62753;40.394;-80.022;2023-03-23T09:55:52;97075.81;;;15.90;50.08
74334;BME280;62753;40.394;-80.022;2023-03-23T09:58:22;97069.18;;;16.09;49.35
74334;BME280;62753;40.394;-80.022;2023-03-23T10:00:48;97068.81;;;15.89;49.93
74334;BME280;62753;40.394;-80.022;2023-03-23T10:03:14;97070.48;;;15.46;51.56
74334;BME280;62753;40.394;-80.022;2023-03-23T10:05:37;97074.96;;;15.50;51.77
74334;BME280;62753;40.394;-80.022;2023-03-23T10:08:02;97070.54;;;15.87;50.12
74334;BME280;62753;40.394;-80.022;2023-03-23T10:10:36;97073.52;;;15.89;49.72
74334;BME280;62753;40.394;-80.022;2023-03-23T10:12:56;97081.01;;;16.76;48.44
74334;BME280;62753;40.394;-80.022;2023-03-23T10:15:19;97088.48;;;16.36;48.31
74334;BME280;62753;40.394;-80.022;2023-03-23T10:17:47;97084.19;;;16.01;49.78
74334;BME280;62753;40.394;-80.022;2023-03-23T10:20:19;97078.45;;;16.22;49.54
74334;BME280;62753;40.394;-80.022;2023-03-23T10:22:34;97072.89;;;16.32;49.27
74334;BME280;62753;40.394;-80.022;2023-03-23T10:25:05;97073.25;;;16.80;47.86
74334;BME280;62753;40.394;-80.022;2023-03-23T10:27:26;97058.83;;;16.46;48.34
74334;BME280;62753;40.394;-80.022;2023-03-23T10:29:52;97061.88;;;15.81;49.21
74334;BME280;62753;40.394;-80.022;2023-03-23T10:32:15;97057.04;;;16.41;47.87
74334;BME280;62753;40.394;-80.022;2023-03-23T10:34:44;97061.31;;;16.66;47.76
74334;BME280;62753;40.394;-80.022;2023-03-23T10:37:08;97060.91;;;16.72;47.14
74334;BME280;62753;40.394;-80.022;2023-03-23T10:39:33;97059.73;;;16.98;46.97
74334;BME280;62753;40.394;-80.022;2023-03-23T10:41:55;97066.60;;;16.67;47.77
74334;BME280;62753;40.394;-80.022;2023-03-23T10:44:23;97065.53;;;17.02;47.17
74334;BME280;62753;40.394;-80.022;2023-03-23T10:46:50;97043.70;;;17.05;47.23
74334;BME280;62753;40.394;-80.022;2023-03-23T10:49:13;97024.06;;;15.95;49.16
74334;BME280;62753;40.394;-80.022;2023-03-23T10:51:37;96986.85;;;13.77;57.47
74334;BME280;62753;40.394;-80.022;2023-03-23T10:54:03;96971.28;;;13.70;58.73
74334;BME280;62753;40.394;-80.022;2023-03-23T10:56:35;96954.42;;;12.73;61.74
74334;BME280;62753;40.394;-80.022;2023-03-23T10:58:54;96934.40;;;12.93;61.90
74334;BME280;62753;40.394;-80.022;2023-03-23T11:01:20;97002.96;;;14.40;58.38
74334;BME280;62753;40.394;-80.022;2023-03-23T11:03:46;96998.70;;;15.25;54.03
74334;BME280;62753;40.394;-80.022;2023-03-23T11:06:11;96983.22;;;14.81;54.56
74334;BME280;62753;40.394;-80.022;2023-03-23T11:08:37;96985.99;;;14.39;57.03
74334;BME280;62753;40.394;-80.022;2023-03-23T11:11:10;96975.47;;;13.82;58.89
74334;BME280;62753;40.394;-80.022;2023-03-23T11:13:31;96982.21;;;14.40;56.83
74334;BME280;62753;40.394;-80.022;2023-03-23T11:15:50;96973.88;;;14.34;57.36
74334;BME280;62753;40.394;-80.022;2023-03-23T11:18:21;96994.75;;;14.88;56.18
74334;BME280;62753;40.394;-80.022;2023-03-23T11:20:43;97000.96;;;16.00;52.80
74334;BME280;62753;40.394;-80.022;2023-03-23T11:23:10;97012.99;;;15.95;52.92
74334;BME280;62753;40.394;-80.022;2023-03-23T11:25:33;97011.58;;;15.99;52.84
74334;BME280;62753;40.394;-80.022;2023-03-23T11:27:58;96995.69;;;15.85;52.27
74334;BME280;62753;40.394;-80.022;2023-03-23T11:30:26;97008.41;;;15.66;53.20
74334;BME280;62753;40.394;-80.022;2023-03-23T11:32:49;97023.18;;;16.03;52.05
74334;BME280;62753;40.394;-80.022;2023-03-23T11:35:17;97024.77;;;16.95;50.80
74334;BME280;62753;40.394;-80.022;2023-03-23T11:37:42;97005.09;;;16.76;51.08
74334;BME280;62753;40.394;-80.022;2023-03-23T11:40:14;97023.95;;;16.46;51.28
74334;BME280;62753;40.394;-80.022;2023-03-23T11:42:37;97036.32;;;16.35;50.76
74334;BME280;62753;40.394;-80.022;2023-03-23T11:47:28;97031.94;;;16.48;51.18
74334;BME280;62753;40.394;-80.022;2023-03-23T11:49:52;96974.65;;;16.72;50.99
74334;BME280;62753;40.394;-80.022;2023-03-23T11:52:22;96992.73;;;15.12;56.03
74334;BME280;62753;40.394;-80.022;2023-03-23T11:54:42;96973.84;;;15.92;53.46
74334;BME280;62753;40.394;-80.022;2023-03-23T11:57:07;96985.69;;;16.19;53.28
74334;BME280;62753;40.394;-80.022;2023-03-23T11:59:31;97013.38;;;16.49;52.25
74334;BME280;62753;40.394;-80.022;2023-03-23T12:01:59;97043.34;;;16.28;53.38
74334;BME280;62753;40.394;-80.022;2023-03-23T12:04:32;96990.95;;;16.49;52.26
74334;BME280;62753;40.394;-80.022;2023-03-23T12:06:49;97008.79;;;16.21;53.24
74334;BME280;62753;40.394;-80.022;2023-03-23T12:09:20;97023.06;;;15.94;52.60
74334;BME280;62753;40.394;-80.022;2023-03-23T12:11:43;97018.18;;;16.32;53.01
74334;BME280;62753;40.394;-80.022;2023-03-23T12:14:11;97007.10;;;16.35;53.05
74334;BME280;62753;40.394;-80.022;2023-03-23T12:16:33;97004.05;;;16.52;51.86
74334;BME280;62753;40.394;-80.022;2023-03-23T12:18:56;96975.30;;;16.88;51.82
74334;BME280;62753;40.394;-80.022;2023-03-23T12:21:23;96979.38;;;16.89;50.81
74334;BME280;62753;40.394;-80.022;2023-03-23T12:23:45;96987.74;;;17.01;50.97
74334;BME280;62753;40.394;-80.022;2023-03-23T12:26:16;96966.76;;;16.86;51.63
74334;BME280;62753;40.394;-80.022;2023-03-23T12:28:41;96959.19;;;17.10;50.68
74334;BME280;62753;40.394;-80.022;2023-03-23T12:31:02;96976.27;;;17.60;49.37
74334;BME280;62753;40.394;-80.022;2023-03-23T12:33:29;96979.33;;;16.75;51.22
74334;BME280;62753;40.394;-80.022;2023-03-23T12:35:58;96979.25;;;16.87;51.85
74334;BME280;62753;40.394;-80.022;2023-03-23T12:38:26;96984.82;;;16.38;51.56